Rogers, Arkansas
Current Conditions -  °F | °C
As of 10:57 AM on Sunday 21 Dec 2014 (Local Time) from KROG Reporting Station
Overcast Overcast  
Wind Chill: 37°   Ceiling: 900
Heat Index: 42°   Visibility: 10mi
Dew Point: 40°   Wind: 8mph
Humidity: 92%   Direction: 140°SE
Pressure: 30.07"   Gusts: NA
Location:  36.33°N, 94.12°W
Report Text: KROG 211657Z 14007KT 10SM OVC009 06/04 A3007 RMK AO2 CIG 008V013 SLP186 T00560044
Loading
Personal Weather Stations






























Interactive Weather Map New forecast layout! Learn more

10-Day Weather Forecast

Advertisements
Track Severe Weather on mobile